| time (UTC) | temp C | wind direction | speed KPH | gust KPH | rain 1hr cm | rain 24hr cm | rain mn cm | humidity % | barometer mb |
| 20260507044704 | 9 | 213 | 4.8 | 11.3 | 0.05 | 0.66 | 0.25 | 93 | 1011.9 |
| 20260507044205 | 9 | 250 | 6.4 | 11.3 | 0.05 | 0.64 | 0.23 | 93 | 1011.9 |
| 20260507043705 | 9 | 219 | 6.4 | 16.1 | 0.05 | 0.64 | 0.23 | 93 | 1011.8 |
| 20260507043204 | 9 | 221 | 6.4 | 16.1 | 0.05 | 0.64 | 0.23 | 93 | 1011.7 |
| 20260507042704 | 9 | 202 | 6.4 | 16.1 | 0.05 | 0.64 | 0.23 | 93 | 1011.7 |
| 20260507042205 | 9 | 246 | 6.4 | 14.5 | 0.05 | 0.64 | 0.23 | 93 | 1011.6 |
| 20260507041205 | 9 | 261 | 6.4 | 14.5 | 0.05 | 0.61 | 0.23 | 92 | 1011.5 |
| 20260507040705 | 9 | 227 | 4.8 | 12.9 | 0.05 | 0.61 | 0.23 | 93 | 1011.4 |
| 20260507040222 | 9 | 237 | 6.4 | 12.9 | 0.05 | 0.61 | 0.23 | 92 | 1011.4 |
| 20260507035705 | 9 | 248 | 6.4 | 12.9 | 0.05 | 0.61 | 0.23 | 92 | 1011.4 |
| 20260507035206 | 9 | 245 | 6.4 | 16.1 | 0.05 | 0.61 | 0.23 | 92 | 1011.3 |
| 20260507034705 | 9 | 219 | 6.4 | 16.1 | 0.05 | 0.61 | 0.23 | 92 | 1011.3 |
| 20260507034205 | 9 | 273 | 8.0 | 17.7 | 0.05 | 0.61 | 0.20 | 92 | 1011.2 |
| 20260507033705 | 9 | 259 | 8.0 | 17.7 | 0.05 | 0.61 | 0.20 | 92 | 1011.2 |
| 20260507032705 | 9 | 240 | 11.3 | 22.5 | 0.05 | 0.61 | 0.20 | 92 | 1011.0 |
| 20260507032205 | 9 | 239 | 11.3 | 22.5 | 0.05 | 0.61 | 0.20 | 93 | 1011.0 |
| 20260507031705 | 9 | 203 | 9.7 | 22.5 | 0.05 | 0.61 | 0.18 | 92 | 1010.9 |
| 20260507031205 | 9 | 214 | 6.4 | 12.9 | 0.03 | 0.58 | 0.18 | 93 | 1010.8 |
| 20260507030705 | 9 | 204 | 4.8 | 11.3 | 0.03 | 0.58 | 0.18 | 93 | 1010.8 |
| 20260507030205 | 9 | 207 | 4.8 | 11.3 | 0.03 | 0.58 | 0.18 | 93 | 1010.7 |
| 20260507025705 | 9 | 212 | 4.8 | 11.3 | 0.03 | 0.58 | 0.18 | 93 | 1010.7 |
| 20260507025205 | 9 | 214 | 4.8 | 11.3 | 0.03 | 0.58 | 0.18 | 93 | 1010.7 |
| 20260507024704 | 9 | 185 | 3.2 | 9.7 | 0.03 | 0.56 | 0.15 | 93 | 1010.6 |
| 20260507024205 | 9 | 219 | 3.2 | 9.7 | 0.03 | 0.56 | 0.15 | 93 | 1010.6 |
| 20260507023704 | 9 | 197 | 3.2 | 11.3 | 0.05 | 0.56 | 0.15 | 93 | 1010.6 |
| 20260507023231 | 9 | 194 | 3.2 | 11.3 | 0.05 | 0.56 | 0.15 | 93 | 1010.6 |
| 20260507022704 | 9 | 196 | 3.2 | 11.3 | 0.05 | 0.56 | 0.15 | 93 | 1010.6 |
| 20260507021205 | 9 | 204 | 3.2 | 9.7 | 0.08 | 0.56 | 0.15 | 93 | 1010.4 |
| 20260507020705 | 9 | 205 | 3.2 | 8.0 | 0.10 | 0.56 | 0.15 | 93 | 1010.4 |
| 20260507015704 | 9 | 185 | 1.6 | 8.0 | 0.13 | 0.56 | 0.15 | 93 | 1010.3 |
| 20260507015204 | 9 | 185 | 3.2 | 8.0 | 0.10 | 0.53 | 0.15 | 92 | 1010.3 |
| 20260507013705 | 9 | 227 | 1.6 | 4.8 | 0.08 | 0.51 | 0.13 | 92 | 1010.3 |
| 20260507013205 | 9 | 227 | 0.0 | 4.8 | 0.08 | 0.51 | 0.13 | 92 | 1010.2 |
| 20260507012705 | 9 | 227 | 1.6 | 4.8 | 0.08 | 0.51 | 0.13 | 92 | 1010.2 |
| 20260507011705 | 9 | 227 | 0.0 | 3.2 | 0.05 | 0.48 | 0.08 | 92 | 1010.2 |
| 20260507011205 | 9 | 227 | 0.0 | 3.2 | 0.05 | 0.48 | 0.08 | 92 | 1010.2 |
| 20260507010705 | 9 | 227 | 0.0 | 3.2 | 0.03 | 0.46 | 0.05 | 92 | 1010.2 |
| 20260507005705 | 9 | 227 | 0.0 | 3.2 | 0.00 | 0.43 | 0.05 | 92 | 1010.2 |
| 20260507004705 | 9 | 227 | 0.0 | 1.6 | 0.00 | 0.43 | 0.05 | 92 | 1010.2 |
| 20260507004205 | 9 | 227 | 0.0 | 3.2 | 0.00 | 0.43 | 0.05 | 92 | 1010.2 |
| 20260507003204 | 9 | 227 | 1.6 | 4.8 | 0.00 | 0.43 | 0.05 | 92 | 1010.1 |
| 20260507002704 | 9 | 227 | 1.6 | 4.8 | 0.00 | 0.43 | 0.05 | 92 | 1010.1 |
| 20260507001704 | 9 | 227 | 1.6 | 4.8 | 0.00 | 0.43 | 0.05 | 91 | 1010.1 |
| 20260507001204 | 9 | 227 | 1.6 | 8.0 | 0.00 | 0.43 | 0.05 | 91 | 1010.1 |
| 20260507000704 | 9 | 227 | 3.2 | 8.0 | 0.00 | 0.43 | 0.05 | 91 | 1010.1 |
| 20260507000205 | 9 | 227 | 1.6 | 8.0 | 0.00 | 0.43 | 0.05 | 91 | 1010.0 |
| 20260506235704 | 9 | 192 | 1.6 | 4.8 | 0.03 | 0.43 | 0.05 | 92 | 1010.1 |
| 20260506235204 | 10 | 193 | 1.6 | 4.8 | 0.03 | 0.43 | 0.05 | 92 | 1010.1 |
| 20260506234704 | 10 | 193 | 1.6 | 4.8 | 0.03 | 0.43 | 0.05 | 92 | 1010.1 |
| 20260506234204 | 10 | 193 | 1.6 | 4.8 | 0.03 | 0.46 | 0.05 | 92 | 1010.1 |
| 20260506233704 | 10 | 193 | 1.6 | 6.4 | 0.03 | 0.46 | 0.05 | 91 | 1010.2 |
| 20260506233204 | 10 | 193 | 1.6 | 6.4 | 0.03 | 0.46 | 0.05 | 91 | 1010.2 |
| 20260506232732 | 10 | 193 | 1.6 | 6.4 | 0.05 | 0.46 | 0.05 | 91 | 1010.2 |
| 20260506231705 | 10 | 215 | 4.8 | 16.1 | 0.05 | 0.46 | 0.05 | 91 | 1010.2 |
| 20260506231205 | 10 | 209 | 6.4 | 16.1 | 0.05 | 0.46 | 0.05 | 90 | 1010.3 |
| 20260506230705 | 10 | 222 | 6.4 | 16.1 | 0.05 | 0.46 | 0.05 | 90 | 1010.3 |
| 20260506230205 | 10 | 223 | 6.4 | 19.3 | 0.05 | 0.46 | 0.05 | 90 | 1010.2 |
| 20260506225705 | 10 | 238 | 6.4 | 19.3 | 0.03 | 0.43 | 0.03 | 90 | 1010.2 |
| 20260506223706 | 10 | 222 | 3.2 | 9.7 | 0.03 | 0.43 | 0.03 | 91 | 1010.1 |
| 20260506223205 | 10 | 194 | 4.8 | 11.3 | 0.03 | 0.43 | 0.03 | 91 | 1010.1 |
| 20260506222704 | 10 | 192 | 4.8 | 11.3 | 0.00 | 0.43 | 0.00 | 91 | 1010.0 |
| 20260506222204 | 10 | 236 | 4.8 | 11.3 | 0.00 | 0.43 | 0.00 | 91 | 1010.1 |
| 20260506221705 | 10 | 207 | 4.8 | 11.3 | 0.00 | 0.43 | 0.00 | 91 | 1010.0 |
| 20260506221204 | 10 | 224 | 4.8 | 8.0 | 0.00 | 0.43 | 0.00 | 91 | 1009.9 |
| 20260506220205 | 10 | 190 | 3.2 | 8.0 | 0.00 | 0.43 | 0.43 | 92 | 1009.9 |
| 20260506215704 | 10 | 205 | 1.6 | 8.0 | 0.00 | 0.43 | 0.43 | 92 | 1009.8 |
| 20260506215204 | 10 | 198 | 3.2 | 6.4 | 0.03 | 0.43 | 0.43 | 92 | 1009.7 |
| 20260506214704 | 10 | 197 | 1.6 | 6.4 | 0.03 | 0.43 | 0.43 | 92 | 1009.7 |
| 20260506214205 | 10 | 200 | 1.6 | 6.4 | 0.03 | 0.43 | 0.43 | 92 | 1009.7 |
| 20260506213704 | 10 | 201 | 1.6 | 8.0 | 0.05 | 0.43 | 0.43 | 92 | 1009.6 |
| 20260506213204 | 10 | 201 | 3.2 | 8.0 | 0.05 | 0.43 | 0.43 | 92 | 1009.6 |
| 20260506212705 | 10 | 206 | 3.2 | 8.0 | 0.05 | 0.43 | 0.43 | 92 | 1009.6 |
| 20260506212205 | 10 | 205 | 3.2 | 8.0 | 0.05 | 0.43 | 0.43 | 92 | 1009.4 |
| 20260506211704 | 10 | 200 | 1.6 | 8.0 | 0.05 | 0.43 | 0.43 | 92 | 1009.4 |
| 20260506210705 | 10 | 211 | 3.2 | 9.7 | 0.08 | 0.43 | 0.43 | 92 | 1009.3 |
| 20260506205705 | 10 | 184 | 3.2 | 8.0 | 0.08 | 0.41 | 0.41 | 92 | 1009.3 |
| 20260506205205 | 10 | 209 | 3.2 | 9.7 | 0.10 | 0.41 | 0.41 | 92 | 1009.3 |
| 20260506204705 | 10 | 197 | 3.2 | 9.7 | 0.13 | 0.41 | 0.41 | 92 | 1009.3 |
| 20260506204205 | 10 | 215 | 3.2 | 8.0 | 0.13 | 0.38 | 0.38 | 92 | 1009.3 |
| 20260506203704 | 10 | 217 | 1.6 | 8.0 | 0.15 | 0.38 | 0.38 | 92 | 1009.2 |
| 20260506203204 | 10 | 182 | 1.6 | 8.0 | 0.15 | 0.38 | 0.38 | 92 | 1009.3 |
| 20260506202705 | 10 | 193 | 1.6 | 6.4 | 0.15 | 0.38 | 0.38 | 92 | 1009.2 |
| 20260506202205 | 10 | 196 | 1.6 | 9.7 | 0.15 | 0.38 | 0.38 | 92 | 1009.2 |
| 20260506201705 | 10 | 198 | 1.6 | 9.7 | 0.15 | 0.36 | 0.36 | 92 | 1009.2 |
| 20260506201205 | 10 | 200 | 3.2 | 9.7 | 0.15 | 0.33 | 0.33 | 92 | 1009.2 |
| 20260506200705 | 10 | 213 | 3.2 | 9.7 | 0.15 | 0.33 | 0.33 | 92 | 1009.2 |
| 20260506200205 | 11 | 202 | 3.2 | 8.0 | 0.15 | 0.33 | 0.33 | 92 | 1009.2 |
| 20260506195705 | 11 | 211 | 3.2 | 8.0 | 0.15 | 0.30 | 0.30 | 92 | 1009.1 |
| 20260506195205 | 11 | 184 | 3.2 | 8.0 | 0.15 | 0.30 | 0.30 | 92 | 1009.1 |
| 20260506193704 | 11 | 189 | 3.2 | 8.0 | 0.13 | 0.23 | 0.23 | 92 | 1008.8 |
| 20260506193205 | 11 | 208 | 3.2 | 8.0 | 0.13 | 0.23 | 0.23 | 92 | 1008.7 |
| 20260506192705 | 11 | 198 | 3.2 | 11.3 | 0.13 | 0.23 | 0.23 | 91 | 1008.6 |
| 20260506192205 | 11 | 194 | 3.2 | 11.3 | 0.13 | 0.23 | 0.23 | 91 | 1008.5 |
| 20260506191705 | 11 | 209 | 4.8 | 11.3 | 0.10 | 0.20 | 0.20 | 91 | 1008.4 |
| 20260506191205 | 11 | 182 | 4.8 | 11.3 | 0.08 | 0.18 | 0.18 | 91 | 1008.4 |
| 20260506190705 | 11 | 182 | 4.8 | 11.3 | 0.10 | 0.18 | 0.18 | 91 | 1008.3 |
| 20260506190205 | 11 | 184 | 3.2 | 9.7 | 0.08 | 0.15 | 0.15 | 91 | 1008.2 |
| 20260506185204 | 11 | 206 | 4.8 | 11.3 | 0.08 | 0.15 | 0.15 | 91 | 1008.0 |
| 20260506184704 | 11 | 186 | 3.2 | 9.7 | 0.08 | 0.15 | 0.15 | 90 | 1007.9 |
| 20260506183704 | 11 | 213 | 3.2 | 9.7 | 0.05 | 0.13 | 0.13 | 90 | 1007.8 |
| 20260506183204 | 12 | 192 | 3.2 | 9.7 | 0.05 | 0.10 | 0.10 | 90 | 1007.8 |
| 20260506182705 | 12 | 186 | 3.2 | 8.0 | 0.05 | 0.10 | 0.10 | 90 | 1007.7 |
| 20260506181705 | 12 | 188 | 1.6 | 8.0 | 0.05 | 0.10 | 0.10 | 89 | 1007.6 |
| 20260506181205 | 12 | 203 | 1.6 | 9.7 | 0.05 | 0.13 | 0.10 | 89 | 1007.6 |
| 20260506180705 | 12 | 184 | 3.2 | 9.7 | 0.03 | 0.10 | 0.08 | 89 | 1007.6 |
| 20260506180204 | 12 | 175 | 3.2 | 6.4 | 0.03 | 0.13 | 0.08 | 88 | 1007.6 |
| 20260506175204 | 12 | 208 | 1.6 | 6.4 | 0.00 | 0.15 | 0.05 | 88 | 1007.6 |
| 20260506174704 | 12 | 213 | 1.6 | 4.8 | 0.00 | 0.15 | 0.05 | 88 | 1007.5 |
| 20260506174205 | 12 | 219 | 1.6 | 6.4 | 0.00 | 0.15 | 0.05 | 87 | 1007.4 |
| 20260506173704 | 12 | 219 | 1.6 | 9.7 | 0.00 | 0.15 | 0.05 | 87 | 1007.3 |
| 20260506173204 | 12 | 219 | 3.2 | 9.7 | 0.00 | 0.15 | 0.05 | 87 | 1007.4 |
| 20260506172704 | 12 | 221 | 3.2 | 9.7 | 0.00 | 0.15 | 0.05 | 87 | 1007.4 |
| 20260506172205 | 12 | 224 | 3.2 | 8.0 | 0.00 | 0.15 | 0.05 | 87 | 1007.4 |
| 20260506171204 | 12 | 226 | 1.6 | 8.0 | 0.00 | 0.15 | 0.05 | 87 | 1007.3 |
| 20260506170705 | 12 | 226 | 3.2 | 8.0 | 0.00 | 0.15 | 0.05 | 87 | 1007.3 |
| 20260506165205 | 12 | 219 | 1.6 | 8.0 | 0.00 | 0.15 | 0.05 | 87 | 1007.2 |
| 20260506164204 | 12 | 225 | 3.2 | 11.3 | 0.00 | 0.15 | 0.05 | 86 | 1007.3 |
| 20260506163704 | 13 | 288 | 4.8 | 12.9 | 0.00 | 0.15 | 0.05 | 86 | 1007.3 |
| 20260506163204 | 12 | 275 | 6.4 | 12.9 | 0.00 | 0.15 | 0.05 | 85 | 1007.3 |
| 20260506162705 | 13 | 234 | 4.8 | 12.9 | 0.00 | 0.15 | 0.05 | 84 | 1007.3 |
| 20260506162220 | 13 | 213 | 4.8 | 12.9 | 0.00 | 0.15 | 0.05 | 84 | 1007.3 |
| 20260506161705 | 13 | 233 | 4.8 | 17.7 | 0.00 | 0.15 | 0.05 | 84 | 1007.3 |
| 20260506161207 | 13 | 237 | 6.4 | 17.7 | 0.00 | 0.15 | 0.05 | 84 | 1007.2 |
| 20260506160705 | 13 | 224 | 6.4 | 17.7 | 0.00 | 0.15 | 0.05 | 84 | 1007.2 |
| 20260506160232 | 13 | 245 | 4.8 | 11.3 | 0.00 | 0.15 | 0.05 | 85 | 1007.1 |
| 20260506155732 | 13 | 281 | 4.8 | 11.3 | 0.00 | 0.15 | 0.05 | 85 | 1007.1 |
| 20260506155204 | 13 | 218 | 4.8 | 11.3 | 0.00 | 0.15 | 0.05 | 85 | 1007.1 |
| 20260506154704 | 13 | 229 | 4.8 | 9.7 | 0.00 | 0.15 | 0.05 | 85 | 1007.1 |
| 20260506154205 | 13 | 227 | 4.8 | 9.7 | 0.00 | 0.15 | 0.05 | 85 | 1007.0 |
| 20260506153204 | 13 | 221 | 4.8 | 12.9 | 0.00 | 0.15 | 0.05 | 86 | 1007.0 |
| 20260506152704 | 13 | 243 | 6.4 | 12.9 | 0.00 | 0.15 | 0.05 | 85 | 1007.0 |
| 20260506152205 | 13 | 298 | 6.4 | 12.9 | 0.00 | 0.18 | 0.05 | 84 | 1006.9 |
| 20260506151704 | 13 | 281 | 6.4 | 17.7 | 0.00 | 0.18 | 0.05 | 85 | 1006.9 |
| 20260506151204 | 13 | 275 | 8.0 | 17.7 | 0.00 | 0.20 | 0.05 | 85 | 1006.9 |
| 20260506150705 | 13 | 221 | 8.0 | 17.7 | 0.00 | 0.20 | 0.05 | 84 | 1006.9 |
| 20260506150204 | 13 | 289 | 8.0 | 19.3 | 0.00 | 0.20 | 0.05 | 85 | 1006.8 |
| 20260506145704 | 13 | 285 | 8.0 | 20.9 | 0.00 | 0.20 | 0.05 | 85 | 1006.7 |
| 20260506145204 | 13 | 291 | 9.7 | 22.5 | 0.00 | 0.20 | 0.05 | 86 | 1006.6 |
| 20260506144707 | 13 | 330 | 11.3 | 25.7 | 0.03 | 0.20 | 0.05 | 86 | 1006.5 |
| 20260506144204 | 13 | 288 | 12.9 | 25.7 | 0.03 | 0.20 | 0.05 | 84 | 1006.5 |
| 20260506143704 | 13 | 326 | 14.5 | 25.7 | 0.03 | 0.20 | 0.05 | 84 | 1006.4 |
| 20260506143204 | 13 | 271 | 14.5 | 22.5 | 0.03 | 0.20 | 0.05 | 83 | 1006.5 |
| 20260506142704 | 13 | 290 | 12.9 | 37.0 | 0.03 | 0.23 | 0.05 | 82 | 1006.5 |
| 20260506142204 | 13 | 270 | 14.5 | 37.0 | 0.03 | 0.23 | 0.05 | 82 | 1006.6 |
| 20260506141705 | 13 | 284 | 17.7 | 37.0 | 0.03 | 0.23 | 0.05 | 81 | 1006.6 |
| 20260506141204 | 14 | 304 | 17.7 | 32.2 | 0.03 | 0.25 | 0.05 | 78 | 1006.5 |
| 20260506140705 | 16 | 281 | 11.3 | 30.6 | 0.03 | 0.28 | 0.05 | 77 | 1006.5 |
| 20260506140204 | 16 | 302 | 4.8 | 9.7 | 0.03 | 0.30 | 0.05 | 78 | 1006.1 |
| 20260506135705 | 16 | 267 | 3.2 | 9.7 | 0.03 | 0.33 | 0.05 | 77 | 1006.0 |
| 20260506134704 | 16 | 355 | 4.8 | 6.4 | 0.00 | 0.33 | 0.05 | 75 | 1005.9 |
| 20260506134205 | 16 | 355 | 3.2 | 8.0 | 0.00 | 0.38 | 0.05 | 75 | 1005.9 |
| 20260506133704 | 17 | 355 | 3.2 | 8.0 | 0.00 | 0.41 | 0.05 | 74 | 1005.8 |
| 20260506132704 | 17 | 50 | 3.2 | 4.8 | 0.00 | 0.43 | 0.05 | 73 | 1005.8 |
| 20260506132205 | 17 | 74 | 3.2 | 4.8 | 0.00 | 0.46 | 0.05 | 74 | 1005.6 |
| 20260506131705 | 17 | 74 | 3.2 | 4.8 | 0.03 | 0.48 | 0.05 | 75 | 1005.6 |
| 20260506130705 | 17 | 74 | 3.2 | 4.8 | 0.03 | 0.51 | 0.05 | 73 | 1005.4 |
| 20260506130205 | 17 | 74 | 1.6 | 4.8 | 0.03 | 0.51 | 0.05 | 73 | 1005.4 |
| 20260506125704 | 17 | 74 | 1.6 | 4.8 | 0.03 | 0.51 | 0.05 | 73 | 1005.4 |
| 20260506125205 | 16 | 74 | 1.6 | 6.4 | 0.03 | 0.51 | 0.05 | 74 | 1005.3 |
| 20260506124205 | 16 | 74 | 3.2 | 6.4 | 0.03 | 0.51 | 0.05 | 73 | 1005.4 |
| 20260506123704 | 16 | 74 | 3.2 | 8.0 | 0.03 | 0.51 | 0.05 | 72 | 1005.3 |
| 20260506123204 | 16 | 74 | 3.2 | 8.0 | 0.03 | 0.51 | 0.05 | 72 | 1005.3 |
| 20260506122704 | 16 | 76 | 3.2 | 8.0 | 0.03 | 0.51 | 0.05 | 74 | 1005.3 |
| 20260506122204 | 17 | 76 | 1.6 | 8.0 | 0.03 | 0.51 | 0.05 | 73 | 1005.5 |
| 20260506121704 | 17 | 99 | 3.2 | 11.3 | 0.00 | 0.51 | 0.03 | 71 | 1005.4 |
| 20260506121205 | 17 | 98 | 3.2 | 11.3 | 0.00 | 0.51 | 0.03 | 71 | 1005.5 |
| 20260506120705 | 17 | 100 | 3.2 | 11.3 | 0.00 | 0.51 | 0.03 | 68 | 1005.5 |
| 20260506120205 | 17 | 114 | 3.2 | 11.3 | 0.00 | 0.51 | 0.03 | 67 | 1005.5 |
| 20260506115704 | 17 | 136 | 1.6 | 9.7 | 0.00 | 0.51 | 0.03 | 68 | 1005.6 |
| 20260506115204 | 17 | 129 | 1.6 | 8.0 | 0.00 | 0.51 | 0.03 | 67 | 1005.6 |
| 20260506114704 | 17 | 106 | 3.2 | 9.7 | 0.00 | 0.51 | 0.03 | 67 | 1005.6 |
| 20260506114205 | 18 | 117 | 3.2 | 11.3 | 0.00 | 0.51 | 0.03 | 66 | 1005.6 |
| 20260506113705 | 18 | 79 | 4.8 | 11.3 | 0.00 | 0.51 | 0.03 | 64 | 1005.5 |
| 20260506112705 | 18 | 94 | 3.2 | 8.0 | 0.00 | 0.51 | 0.03 | 65 | 1005.6 |
| 20260506112205 | 18 | 101 | 3.2 | 8.0 | 0.00 | 0.51 | 0.03 | 64 | 1005.6 |
| 20260506111705 | 18 | 101 | 3.2 | 9.7 | 0.00 | 0.51 | 0.03 | 66 | 1005.8 |
| 20260506111205 | 18 | 101 | 3.2 | 9.7 | 0.00 | 0.51 | 0.03 | 64 | 1005.9 |
| 20260506110733 | 18 | 98 | 3.2 | 9.7 | 0.00 | 0.51 | 0.03 | 65 | 1005.9 |
| 20260506110204 | 18 | 99 | 3.2 | 4.8 | 0.00 | 0.51 | 0.03 | 66 | 1005.9 |
| 20260506105704 | 18 | 343 | 1.6 | 9.7 | 0.00 | 0.51 | 0.03 | 67 | 1006.0 |
| 20260506105204 | 18 | 342 | 3.2 | 9.7 | 0.00 | 0.51 | 0.03 | 67 | 1006.1 |
| 20260506104704 | 18 | 342 | 3.2 | 9.7 | 0.00 | 0.51 | 0.03 | 68 | 1006.1 |
| 20260506104205 | 18 | 342 | 1.6 | 6.4 | 0.00 | 0.51 | 0.03 | 65 | 1006.1 |
| 20260506103705 | 18 | 342 | 1.6 | 8.0 | 0.00 | 0.51 | 0.03 | 68 | 1006.2 |
| 20260506103204 | 18 | 313 | 1.6 | 8.0 | 0.00 | 0.51 | 0.03 | 67 | 1006.2 |
| 20260506102704 | 18 | 313 | 3.2 | 8.0 | 0.00 | 0.51 | 0.03 | 67 | 1006.3 |
| 20260506102204 | 18 | 300 | 1.6 | 8.0 | 0.00 | 0.51 | 0.03 | 68 | 1006.3 |
| 20260506101704 | 18 | 296 | 4.8 | 8.0 | 0.00 | 0.51 | 0.03 | 69 | 1006.3 |
| 20260506101204 | 18 | 296 | 3.2 | 8.0 | 0.00 | 0.51 | 0.03 | 66 | 1006.3 |
| 20260506100705 | 17 | 300 | 1.6 | 6.4 | 0.00 | 0.51 | 0.03 | 68 | 1006.3 |
| 20260506095705 | 17 | 302 | 3.2 | 6.4 | 0.00 | 0.51 | 0.03 | 67 | 1006.3 |
| 20260506095205 | 17 | 302 | 3.2 | 8.0 | 0.00 | 0.51 | 0.03 | 68 | 1006.4 |
| 20260506094704 | 17 | 302 | 3.2 | 8.0 | 0.00 | 0.51 | 0.03 | 68 | 1006.4 |
| 20260506094205 | 17 | 300 | 3.2 | 8.0 | 0.00 | 0.51 | 0.03 | 67 | 1006.4 |
| 20260506093705 | 17 | 297 | 1.6 | 9.7 | 0.00 | 0.51 | 0.03 | 68 | 1006.4 |
| 20260506093204 | 17 | 296 | 3.2 | 9.7 | 0.00 | 0.51 | 0.03 | 69 | 1006.5 |
| 20260506092704 | 17 | 296 | 3.2 | 9.7 | 0.00 | 0.51 | 0.03 | 67 | 1006.4 |
| 20260506092205 | 17 | 333 | 3.2 | 8.0 | 0.00 | 0.51 | 0.03 | 70 | 1006.5 |
| 20260506091704 | 17 | 336 | 3.2 | 8.0 | 0.00 | 0.51 | 0.03 | 65 | 1006.4 |
| 20260506091204 | 17 | 336 | 3.2 | 9.7 | 0.00 | 0.51 | 0.03 | 67 | 1006.4 |
| 20260506090705 | 17 | 337 | 3.2 | 9.7 | 0.00 | 0.51 | 0.03 | 67 | 1006.3 |
| 20260506090205 | 17 | 339 | 3.2 | 9.7 | 0.00 | 0.51 | 0.03 | 68 | 1006.3 |
| 20260506085704 | 17 | 339 | 3.2 | 8.0 | 0.00 | 0.51 | 0.03 | 70 | 1006.4 |
| 20260506085205 | 17 | 355 | 1.6 | 8.0 | 0.00 | 0.51 | 0.03 | 70 | 1006.5 |
| 20260506084705 | 17 | 276 | 3.2 | 8.0 | 0.00 | 0.51 | 0.03 | 72 | 1006.5 |
| 20260506084205 | 16 | 318 | 1.6 | 11.3 | 0.00 | 0.51 | 0.03 | 74 | 1006.5 |
| 20260506083704 | 16 | 315 | 3.2 | 11.3 | 0.00 | 0.51 | 0.03 | 72 | 1006.5 |
| 20260506083204 | 16 | 335 | 3.2 | 11.3 | 0.00 | 0.51 | 0.03 | 69 | 1006.5 |
| 20260506082704 | 17 | 281 | 3.2 | 9.7 | 0.00 | 0.51 | 0.03 | 74 | 1006.5 |
| 20260506082205 | 16 | 321 | 3.2 | 9.7 | 0.00 | 0.51 | 0.03 | 74 | 1006.6 |
| 20260506081705 | 17 | 306 | 1.6 | 6.4 | 0.00 | 0.51 | 0.03 | 71 | 1006.6 |
| 20260506081205 | 16 | 217 | 0.0 | 3.2 | 0.00 | 0.51 | 0.03 | 78 | 1006.5 |
| 20260506080705 | 16 | 209 | 1.6 | 4.8 | 0.00 | 0.51 | 0.03 | 75 | 1006.7 |
| 20260506073204 | 15 | 226 | 1.6 | 8.0 | 0.00 | 0.51 | 0.03 | 79 | 1006.8 |
| 20260506072704 | 15 | 209 | 1.6 | 6.4 | 0.00 | 0.51 | 0.03 | 81 | 1006.8 |
| 20260506072204 | 14 | 207 | 1.6 | 6.4 | 0.00 | 0.51 | 0.03 | 81 | 1006.7 |
| 20260506071704 | 14 | 208 | 0.0 | 4.8 | 0.00 | 0.51 | 0.03 | 81 | 1006.6 |
| 20260506071205 | 13 | 167 | 0.0 | 3.2 | 0.00 | 0.51 | 0.03 | 84 | 1006.6 |
| 20260506070705 | 13 | 166 | 0.0 | 3.2 | 0.00 | 0.51 | 0.03 | 83 | 1006.5 |
| 20260506070205 | 13 | 166 | 0.0 | 3.2 | 0.00 | 0.51 | 0.03 | 83 | 1006.6 |
| 20260506062205 | 11 | 166 | 1.6 | 8.0 | 0.00 | 0.51 | 0.03 | 88 | 1006.8 |
| 20260506061705 | 11 | 166 | 3.2 | 8.0 | 0.00 | 0.51 | 0.03 | 89 | 1006.8 |
| 20260506061205 | 11 | 166 | 1.6 | 8.0 | 0.00 | 0.51 | 0.03 | 89 | 1006.8 |
| 20260506060705 | 11 | 165 | 0.0 | 3.2 | 0.00 | 0.51 | 0.03 | 90 | 1006.8 |
| 20260506051204 | 9 | 173 | 0.0 | 0.0 | 0.00 | 0.51 | 0.03 | 92 | 1006.9 |
| 20260506050705 | 9 | 174 | 0.0 | 1.6 | 0.00 | 0.51 | 0.03 | 92 | 1006.9 |